Pacific Dawn — 2AGH7 — position and weather

sailwx.info

Track history (hours):
 
Tides and Currents Weather Stations Pressure Air Temp Water Temp Dewpoint Dewpoint Depression Visibility Wind Speed Wind Dir Waves Ship Positions

Pacific Dawn

Last reported at 2014-Aug-02 01:16 UTC. Time now 2014-Aug-02 02:43 UTC.
Position S 27°26' E 153°04'.

Length 245 m; draft 8.4 m.

Type: Passenger vessel. MMSI: 235059368.

Date/timePositionNaut miles runAvg speedWind from/ knotsBaromVisibWave heightAir tempDewpointWater temp
2014-Aug-02 01:16S 27°26' E 153°04'0 0.0
2014-Aug-02 00:31S 27°26' E 153°04'0 0.0
2014-Aug-01 23:28S 27°26' E 153°04'0 0.0
2014-Aug-01 22:31S 27°26' E 153°04'0 0.0
2014-Aug-01 21:28S 27°26' E 153°04'0 0.0
2014-Aug-01 20:31S 27°26' E 153°04'0 0.0
2014-Aug-01 19:31S 27°26' E 153°04'5 4.8
2014-Aug-01 18:33S 27°25' E 153°09'1110.9
2014-Aug-01 17:33S 27°16' E 153°16'1312.6
2014-Aug-01 16:33S 27°04' E 153°18'1515.5
2014-Aug-01 15:34S 26°50' E 153°09'1212.2
2014-Aug-01 14:33S 26°39' E 153°14'1413.5
2014-Aug-01 13:33S 26°27' E 153°21'1313.6
2014-Aug-01 12:33S 26°14' E 153°23'1313.3
2014-Aug-01 11:33S 26°00' E 153°26'1313.4
2014-Aug-01 10:33S 25°47' E 153°28'  
2014-Jul-29 12:18S 26°21' E 153°22'1416.5
2014-Jul-29 11:28S 26°35' E 153°18'1313.7
2014-Jul-29 10:33S 26°46' E 153°11'1413.8
2014-Jul-29 09:34S 26°59' E 153°14'1514.6
2014-Jul-29 08:33S 27°12' E 153°20'1413.9
2014-Jul-29 07:33S 27°23' E 153°10'6 6.2
2014-Jul-29 06:34S 27°27' E 153°04'0 0.1
2014-Jul-29 03:33S 27°26' E 153°04'0 0.0
2014-Jul-29 02:33S 27°26' E 153°04'0 0.0
2014-Jul-29 01:30S 27°26' E 153°04'0 0.0
2014-Jul-29 00:33S 27°26' E 153°04'0 0.0
2014-Jul-28 23:30S 27°26' E 153°04'0 0.0
2014-Jul-28 22:33S 27°26' E 153°04'0 0.0
2014-Jul-28 21:33S 27°26' E 153°04'0 0.0
2014-Jul-28 20:33S 27°26' E 153°04'0 0.0
2014-Jul-28 19:33S 27°26' E 153°04'4 4.5
2014-Jul-28 18:33S 27°25' E 153°09'1110.6
2014-Jul-28 17:33S 27°16' E 153°16'1313.3
2014-Jul-28 16:34S 27°03' E 153°18'1515.2
2014-Jul-28 15:34S 26°50' E 153°09'9 8.8
2014-Jul-28 14:33S 26°44' E 153°16'9 9.3
2014-Jul-28 13:33S 26°46' E 153°26'9 9.1
2014-Jul-28 12:33S 26°47' E 153°36'14 0.3
2014-Jul-26 13:32S 26°35' E 153°43'1212.8
2014-Jul-26 12:33S 26°38' E 153°30'1312.7
2014-Jul-26 11:34S 26°42' E 153°16'1110.9
2014-Jul-26 10:33S 26°50' E 153°09'1615.8
2014-Jul-26 09:33S 27°04' E 153°18'1313.1
2014-Jul-26 08:33S 27°17' E 153°15'1010.1
2014-Jul-26 07:33S 27°25' E 153°09'4 4.0
2014-Jul-26 06:31S 27°26' E 153°04'0 0.0
2014-Jul-26 05:19S 27°26' E 153°04'0 0.0
2014-Jul-26 04:25S 27°26' E 153°04'0 0.0
2014-Jul-26 03:25S 27°26' E 153°04'0 0.0
2014-Jul-26 02:19S 27°26' E 153°04'0 0.0
2014-Jul-26 01:25S 27°26' E 153°04'0 0.0
2014-Jul-26 00:28S 27°26' E 153°04'0 0.0
2014-Jul-25 23:31S 27°26' E 153°04'0 0.0
2014-Jul-25 22:31S 27°26' E 153°04'0 0.0
2014-Jul-25 21:31S 27°26' E 153°04'0 0.0
2014-Jul-25 20:31S 27°26' E 153°04'0 0.0
2014-Jul-25 19:32S 27°26' E 153°04'5 5.1
2014-Jul-25 18:33S 27°24' E 153°09'1211.6
2014-Jul-25 17:34S 27°15' E 153°17'1313.2
2014-Jul-25 16:34S 27°02' E 153°15'1414.4
2014-Jul-25 15:33S 26°49' E 153°10'1212.3
2014-Jul-25 14:34S 26°41' E 153°21'1716.8
2014-Jul-25 13:33S 26°35' E 153°39'  
Track history (hours):
 
Tides and Currents Weather Stations Pressure Air Temp Water Temp Dewpoint Dewpoint Depression Visibility Wind Speed Wind Dir Waves Ship Positions

Pacific Dawn

Last reported at 2014-Aug-02 01:16 UTC. Time now 2014-Aug-02 02:43 UTC.
Position S 27°26' E 153°04'.

Length 245 m; draft 8.4 m.

Type: Passenger vessel. MMSI: 235059368.

Date/timePositionNaut miles runAvg speedWind from/ knotsBaromVisibWave heightAir tempDewpointWater temp
2014-Aug-02 01:16S 27°26' E 153°04'0 0.0
2014-Aug-02 00:31S 27°26' E 153°04'0 0.0
2014-Aug-01 23:28S 27°26' E 153°04'0 0.0
2014-Aug-01 22:31S 27°26' E 153°04'0 0.0
2014-Aug-01 21:28S 27°26' E 153°04'0 0.0
2014-Aug-01 20:31S 27°26' E 153°04'0 0.0
2014-Aug-01 19:31S 27°26' E 153°04'5 4.8
2014-Aug-01 18:33S 27°25' E 153°09'1110.9
2014-Aug-01 17:33S 27°16' E 153°16'1312.6
2014-Aug-01 16:33S 27°04' E 153°18'1515.5
2014-Aug-01 15:34S 26°50' E 153°09'1212.2
2014-Aug-01 14:33S 26°39' E 153°14'1413.5
2014-Aug-01 13:33S 26°27' E 153°21'1313.6
2014-Aug-01 12:33S 26°14' E 153°23'1313.3
2014-Aug-01 11:33S 26°00' E 153°26'1313.4
2014-Aug-01 10:33S 25°47' E 153°28'  
2014-Jul-29 12:18S 26°21' E 153°22'1416.5
2014-Jul-29 11:28S 26°35' E 153°18'1313.7
2014-Jul-29 10:33S 26°46' E 153°11'1413.8
2014-Jul-29 09:34S 26°59' E 153°14'1514.6
2014-Jul-29 08:33S 27°12' E 153°20'1413.9
2014-Jul-29 07:33S 27°23' E 153°10'6 6.2
2014-Jul-29 06:34S 27°27' E 153°04'0 0.1
2014-Jul-29 03:33S 27°26' E 153°04'0 0.0
2014-Jul-29 02:33S 27°26' E 153°04'0 0.0
2014-Jul-29 01:30S 27°26' E 153°04'0 0.0
2014-Jul-29 00:33S 27°26' E 153°04'0 0.0
2014-Jul-28 23:30S 27°26' E 153°04'0 0.0
2014-Jul-28 22:33S 27°26' E 153°04'0 0.0
2014-Jul-28 21:33S 27°26' E 153°04'0 0.0
2014-Jul-28 20:33S 27°26' E 153°04'0 0.0
2014-Jul-28 19:33S 27°26' E 153°04'4 4.5
2014-Jul-28 18:33S 27°25' E 153°09'1110.6
2014-Jul-28 17:33S 27°16' E 153°16'1313.3
2014-Jul-28 16:34S 27°03' E 153°18'1515.2
2014-Jul-28 15:34S 26°50' E 153°09'9 8.8
2014-Jul-28 14:33S 26°44' E 153°16'9 9.3
2014-Jul-28 13:33S 26°46' E 153°26'9 9.1
2014-Jul-28 12:33S 26°47' E 153°36'14 0.3
2014-Jul-26 13:32S 26°35' E 153°43'1212.8
2014-Jul-26 12:33S 26°38' E 153°30'1312.7
2014-Jul-26 11:34S 26°42' E 153°16'1110.9
2014-Jul-26 10:33S 26°50' E 153°09'1615.8
2014-Jul-26 09:33S 27°04' E 153°18'1313.1
2014-Jul-26 08:33S 27°17' E 153°15'1010.1
2014-Jul-26 07:33S 27°25' E 153°09'4 4.0
2014-Jul-26 06:31S 27°26' E 153°04'0 0.0
2014-Jul-26 05:19S 27°26' E 153°04'0 0.0
2014-Jul-26 04:25S 27°26' E 153°04'0 0.0
2014-Jul-26 03:25S 27°26' E 153°04'0 0.0
2014-Jul-26 02:19S 27°26' E 153°04'0 0.0
2014-Jul-26 01:25S 27°26' E 153°04'0 0.0
2014-Jul-26 00:28S 27°26' E 153°04'0 0.0
2014-Jul-25 23:31S 27°26' E 153°04'0 0.0
2014-Jul-25 22:31S 27°26' E 153°04'0 0.0
2014-Jul-25 21:31S 27°26' E 153°04'0 0.0
2014-Jul-25 20:31S 27°26' E 153°04'0 0.0
2014-Jul-25 19:32S 27°26' E 153°04'5 5.1
2014-Jul-25 18:33S 27°24' E 153°09'1211.6
2014-Jul-25 17:34S 27°15' E 153°17'1313.2
2014-Jul-25 16:34S 27°02' E 153°15'1414.4
2014-Jul-25 15:33S 26°49' E 153°10'1212.3
2014-Jul-25 14:34S 26°41' E 153°21'1716.8
2014-Jul-25 13:33S 26°35' E 153°39'  

Dump ship's entire track history